sensor_id;sensor_type;location;lat;lon;timestamp;temperature;humidity
37086;DHT22;23001;45.952;12.676;2023-05-10T05:44:09;16.20;99.90
37086;DHT22;23001;45.952;12.676;2023-05-10T08:25:10;16.00;99.90
37086;DHT22;23001;45.952;12.676;2023-05-10T08:27:47;16.10;99.90
37086;DHT22;23001;45.952;12.676;2023-05-10T08:39:35;16.20;99.90
37086;DHT22;23001;45.952;12.676;2023-05-10T08:42:04;16.30;99.90
37086;DHT22;23001;45.952;12.676;2023-05-10T08:44:34;16.30;99.90
37086;DHT22;23001;45.952;12.676;2023-05-10T08:47:10;16.30;99.90
37086;DHT22;23001;45.952;12.676;2023-05-10T08:49:42;16.20;99.90
37086;DHT22;23001;45.952;12.676;2023-05-10T08:52:08;16.10;99.90
37086;DHT22;23001;45.952;12.676;2023-05-10T08:54:36;16.10;99.90
37086;DHT22;23001;45.952;12.676;2023-05-10T08:57:01;16.10;99.90
37086;DHT22;23001;45.952;12.676;2023-05-10T08:59:30;16.10;99.90
37086;DHT22;23001;45.952;12.676;2023-05-10T09:02:05;16.10;99.90
37086;DHT22;23001;45.952;12.676;2023-05-10T09:04:40;16.10;99.90
37086;DHT22;23001;45.952;12.676;2023-05-10T09:07:06;16.00;99.90
37086;DHT22;23001;45.952;12.676;2023-05-10T09:09:32;16.00;99.90
37086;DHT22;23001;45.952;12.676;2023-05-10T09:11:58;16.10;99.90
37086;DHT22;23001;45.952;12.676;2023-05-10T09:14:25;16.00;99.90
37086;DHT22;23001;45.952;12.676;2023-05-10T09:16:51;15.80;99.90
37086;DHT22;23001;45.952;12.676;2023-05-10T09:19:17;15.80;99.90
37086;DHT22;23001;45.952;12.676;2023-05-10T09:21:48;15.80;99.90
37086;DHT22;23001;45.952;12.676;2023-05-10T09:24:14;15.80;99.90
37086;DHT22;23001;45.952;12.676;2023-05-10T09:26:47;15.70;99.90
37086;DHT22;23001;45.952;12.676;2023-05-10T09:29:13;15.70;99.90
37086;DHT22;23001;45.952;12.676;2023-05-10T09:31:46;15.70;99.90
37086;DHT22;23001;45.952;12.676;2023-05-10T09:34:19;15.60;99.90
37086;DHT22;23001;45.952;12.676;2023-05-10T09:36:57;15.50;99.90
37086;DHT22;23001;45.952;12.676;2023-05-10T09:39:32;15.50;99.90
37086;DHT22;23001;45.952;12.676;2023-05-10T09:41:59;15.50;99.90
37086;DHT22;23001;45.952;12.676;2023-05-10T09:44:26;15.50;99.90
37086;DHT22;23001;45.952;12.676;2023-05-10T09:46:52;15.60;99.90
37086;DHT22;23001;45.952;12.676;2023-05-10T09:49:21;15.60;99.90
37086;DHT22;23001;45.952;12.676;2023-05-10T09:51:47;15.60;99.90
37086;DHT22;23001;45.952;12.676;2023-05-10T09:54:15;15.70;99.90
37086;DHT22;23001;45.952;12.676;2023-05-10T09:56:41;15.60;99.90
37086;DHT22;23001;45.952;12.676;2023-05-10T09:59:10;15.50;99.90
37086;DHT22;23001;45.952;12.676;2023-05-10T10:01:36;15.40;99.90
37086;DHT22;23001;45.952;12.676;2023-05-10T10:04:03;15.50;99.90
37086;DHT22;23001;45.952;12.676;2023-05-10T10:06:29;15.50;99.90
37086;DHT22;23001;45.952;12.676;2023-05-10T10:11:46;15.30;99.90
37086;DHT22;23001;45.952;12.676;2023-05-10T10:14:17;15.30;99.90
37086;DHT22;23001;45.952;12.676;2023-05-10T10:16:43;15.40;99.90
37086;DHT22;23001;45.952;12.676;2023-05-10T10:19:09;15.30;99.90
37086;DHT22;23001;45.952;12.676;2023-05-10T10:21:35;15.30;99.90
37086;DHT22;23001;45.952;12.676;2023-05-10T10:24:01;15.30;99.90
37086;DHT22;23001;45.952;12.676;2023-05-10T10:26:26;15.30;99.90
37086;DHT22;23001;45.952;12.676;2023-05-10T10:31:36;15.30;99.90
37086;DHT22;23001;45.952;12.676;2023-05-10T10:34:10;15.30;99.90
37086;DHT22;23001;45.952;12.676;2023-05-10T10:36:45;15.50;99.90
37086;DHT22;23001;45.952;12.676;2023-05-10T10:39:11;15.50;99.90
37086;DHT22;23001;45.952;12.676;2023-05-10T10:41:38;15.40;99.90
37086;DHT22;23001;45.952;12.676;2023-05-10T10:49:37;15.40;99.90
37086;DHT22;23001;45.952;12.676;2023-05-10T10:54:49;15.10;99.90
37086;DHT22;23001;45.952;12.676;2023-05-10T10:57:17;15.20;99.90
37086;DHT22;23001;45.952;12.676;2023-05-10T10:59:43;15.10;99.90
37086;DHT22;23001;45.952;12.676;2023-05-10T11:02:55;15.00;99.90
37086;DHT22;23001;45.952;12.676;2023-05-10T11:05:22;15.10;99.90
37086;DHT22;23001;45.952;12.676;2023-05-10T11:07:56;15.10;99.90
37086;DHT22;23001;45.952;12.676;2023-05-10T11:10:23;15.20;99.90
37086;DHT22;23001;45.952;12.676;2023-05-10T11:15:18;15.10;99.90
37086;DHT22;23001;45.952;12.676;2023-05-10T11:17:44;15.10;99.90
37086;DHT22;23001;45.952;12.676;2023-05-10T11:20:13;15.20;99.90
37086;DHT22;23001;45.952;12.676;2023-05-10T11:22:49;15.10;99.90
37086;DHT22;23001;45.952;12.676;2023-05-10T11:25:15;15.10;99.90
37086;DHT22;23001;45.952;12.676;2023-05-10T11:27:41;15.10;99.90
37086;DHT22;23001;45.952;12.676;2023-05-10T11:30:07;15.20;99.90
37086;DHT22;23001;45.952;12.676;2023-05-10T11:32:36;15.10;99.90
37086;DHT22;23001;45.952;12.676;2023-05-10T11:35:06;15.10;99.90
37086;DHT22;23001;45.952;12.676;2023-05-10T11:37:32;15.20;99.90
37086;DHT22;23001;45.952;12.676;2023-05-10T11:39:59;15.20;99.90
37086;DHT22;23001;45.952;12.676;2023-05-10T11:42:25;15.20;99.90
37086;DHT22;23001;45.952;12.676;2023-05-10T11:44:50;15.20;99.90
37086;DHT22;23001;45.952;12.676;2023-05-10T11:47:16;15.10;99.90
37086;DHT22;23001;45.952;12.676;2023-05-10T11:49:45;15.20;99.90
37086;DHT22;23001;45.952;12.676;2023-05-10T11:52:10;15.20;99.90
37086;DHT22;23001;45.952;12.676;2023-05-10T11:54:36;15.30;99.90
37086;DHT22;23001;45.952;12.676;2023-05-10T11:57:14;15.40;99.90
37086;DHT22;23001;45.952;12.676;2023-05-10T11:59:56;15.40;99.90
37086;DHT22;23001;45.952;12.676;2023-05-10T12:02:21;15.40;99.90
37086;DHT22;23001;45.952;12.676;2023-05-10T12:04:56;15.40;99.90
37086;DHT22;23001;45.952;12.676;2023-05-10T12:08:10;15.40;99.90
37086;DHT22;23001;45.952;12.676;2023-05-10T12:10:17;15.10;99.90
37086;DHT22;23001;45.952;12.676;2023-05-10T12:12:51;15.10;99.90
37086;DHT22;23001;45.952;12.676;2023-05-10T12:15:18;15.10;99.90
37086;DHT22;23001;45.952;12.676;2023-05-10T12:17:45;15.20;99.90
37086;DHT22;23001;45.952;12.676;2023-05-10T12:20:20;15.20;99.90
37086;DHT22;23001;45.952;12.676;2023-05-10T12:22:47;15.20;99.90
37086;DHT22;23001;45.952;12.676;2023-05-10T12:25:12;15.20;99.90
37086;DHT22;23001;45.952;12.676;2023-05-10T12:27:38;15.10;99.90
37086;DHT22;23001;45.952;12.676;2023-05-10T12:30:04;15.10;99.90
37086;DHT22;23001;45.952;12.676;2023-05-10T12:32:39;15.10;99.90
37086;DHT22;23001;45.952;12.676;2023-05-10T12:35:05;15.10;99.90
37086;DHT22;23001;45.952;12.676;2023-05-10T12:37:31;15.10;99.90
37086;DHT22;23001;45.952;12.676;2023-05-10T12:40:01;15.20;99.90
37086;DHT22;23001;45.952;12.676;2023-05-10T12:42:27;15.20;99.90
37086;DHT22;23001;45.952;12.676;2023-05-10T12:44:56;15.00;99.90
37086;DHT22;23001;45.952;12.676;2023-05-10T12:47:22;15.00;99.90
37086;DHT22;23001;45.952;12.676;2023-05-10T12:49:47;15.10;99.90
37086;DHT22;23001;45.952;12.676;2023-05-10T12:52:13;15.00;99.90
37086;DHT22;23001;45.952;12.676;2023-05-10T12:54:38;14.90;99.90
37086;DHT22;23001;45.952;12.676;2023-05-10T12:57:04;15.00;99.90
37086;DHT22;23001;45.952;12.676;2023-05-10T12:59:30;15.00;99.90
37086;DHT22;23001;45.952;12.676;2023-05-10T13:01:56;15.10;99.90
37086;DHT22;23001;45.952;12.676;2023-05-10T13:04:22;15.00;99.90
37086;DHT22;23001;45.952;12.676;2023-05-10T13:06:48;15.00;99.90
37086;DHT22;23001;45.952;12.676;2023-05-10T13:09:17;14.80;99.90
37086;DHT22;23001;45.952;12.676;2023-05-10T13:11:42;14.80;99.90
37086;DHT22;23001;45.952;12.676;2023-05-10T13:14:08;14.80;99.90
37086;DHT22;23001;45.952;12.676;2023-05-10T13:16:34;14.80;99.90
37086;DHT22;23001;45.952;12.676;2023-05-10T13:18:59;14.80;99.90
37086;DHT22;23001;45.952;12.676;2023-05-10T13:21:25;14.80;99.90
37086;DHT22;23001;45.952;12.676;2023-05-10T13:23:51;14.70;99.90
37086;DHT22;23001;45.952;12.676;2023-05-10T13:26:16;14.70;99.90
37086;DHT22;23001;45.952;12.676;2023-05-10T13:28:43;14.80;99.90
37086;DHT22;23001;45.952;12.676;2023-05-10T13:31:08;14.80;99.90
37086;DHT22;23001;45.952;12.676;2023-05-10T13:33:34;14.70;99.90
37086;DHT22;23001;45.952;12.676;2023-05-10T13:36:00;14.70;99.90
37086;DHT22;23001;45.952;12.676;2023-05-10T13:38:25;14.90;99.90
37086;DHT22;23001;45.952;12.676;2023-05-10T13:40:51;14.80;99.90
37086;DHT22;23001;45.952;12.676;2023-05-10T13:43:18;14.90;99.90
37086;DHT22;23001;45.952;12.676;2023-05-10T13:45:43;14.80;99.90
37086;DHT22;23001;45.952;12.676;2023-05-10T13:48:18;14.80;99.90
37086;DHT22;23001;45.952;12.676;2023-05-10T13:50:53;14.70;99.90
37086;DHT22;23001;45.952;12.676;2023-05-10T13:56:25;14.70;99.90
37086;DHT22;23001;45.952;12.676;2023-05-10T13:58:53;14.60;99.90
37086;DHT22;23001;45.952;12.676;2023-05-10T14:01:24;14.60;99.90
37086;DHT22;23001;45.952;12.676;2023-05-10T14:03:53;14.60;99.90
37086;DHT22;23001;45.952;12.676;2023-05-10T14:06:20;14.50;99.90
37086;DHT22;23001;45.952;12.676;2023-05-10T14:08:46;14.60;99.90
37086;DHT22;23001;45.952;12.676;2023-05-10T14:11:12;14.60;99.90
37086;DHT22;23001;45.952;12.676;2023-05-10T14:13:38;14.60;99.90
37086;DHT22;23001;45.952;12.676;2023-05-10T14:16:03;14.60;99.90
37086;DHT22;23001;45.952;12.676;2023-05-10T14:18:29;14.60;99.90
37086;DHT22;23001;45.952;12.676;2023-05-10T14:20:55;14.60;99.90
37086;DHT22;23001;45.952;12.676;2023-05-10T14:23:21;14.50;99.90
37086;DHT22;23001;45.952;12.676;2023-05-10T14:25:52;14.50;99.90
37086;DHT22;23001;45.952;12.676;2023-05-10T14:28:18;14.60;99.90
37086;DHT22;23001;45.952;12.676;2023-05-10T14:30:44;14.60;99.90
37086;DHT22;23001;45.952;12.676;2023-05-10T14:33:09;14.50;99.90
37086;DHT22;23001;45.952;12.676;2023-05-10T14:35:35;14.60;99.90
37086;DHT22;23001;45.952;12.676;2023-05-10T14:38:01;14.50;99.90
37086;DHT22;23001;45.952;12.676;2023-05-10T14:40:28;14.50;99.90
37086;DHT22;23001;45.952;12.676;2023-05-10T14:42:54;14.50;99.90
37086;DHT22;23001;45.952;12.676;2023-05-10T14:45:20;14.60;99.90
37086;DHT22;23001;45.952;12.676;2023-05-10T14:47:46;14.50;99.90
37086;DHT22;23001;45.952;12.676;2023-05-10T14:50:18;14.50;99.90
37086;DHT22;23001;45.952;12.676;2023-05-10T14:52:46;14.50;99.90
37086;DHT22;23001;45.952;12.676;2023-05-10T14:58:05;14.40;99.90
37086;DHT22;23001;45.952;12.676;2023-05-10T15:00:30;14.40;99.90
37086;DHT22;23001;45.952;12.676;2023-05-10T15:02:56;14.40;99.90
37086;DHT22;23001;45.952;12.676;2023-05-10T15:05:22;14.40;99.90
37086;DHT22;23001;45.952;12.676;2023-05-10T15:07:48;14.50;99.90
37086;DHT22;23001;45.952;12.676;2023-05-10T15:10:21;14.40;99.90
37086;DHT22;23001;45.952;12.676;2023-05-10T15:12:47;14.40;99.90
37086;DHT22;23001;45.952;12.676;2023-05-10T15:15:13;14.40;99.90
37086;DHT22;23001;45.952;12.676;2023-05-10T15:17:38;14.30;99.90
37086;DHT22;23001;45.952;12.676;2023-05-10T15:35:33;14.30;99.90
37086;DHT22;23001;45.952;12.676;2023-05-10T15:47:02;14.40;99.90
37086;DHT22;23001;45.952;12.676;2023-05-10T15:49:39;14.40;99.90
37086;DHT22;23001;45.952;12.676;2023-05-10T15:52:40;14.30;99.90
37086;DHT22;23001;45.952;12.676;2023-05-10T15:58:19;14.30;99.90
37086;DHT22;23001;45.952;12.676;2023-05-10T16:06:39;14.40;99.90
37086;DHT22;23001;45.952;12.676;2023-05-10T16:09:07;14.30;99.90
37086;DHT22;23001;45.952;12.676;2023-05-10T16:14:26;14.30;99.90
37086;DHT22;23001;45.952;12.676;2023-05-10T16:16:53;14.30;99.90
37086;DHT22;23001;45.952;12.676;2023-05-10T16:25:39;14.20;99.90
37086;DHT22;23001;45.952;12.676;2023-05-10T16:31:11;14.30;99.90
37086;DHT22;23001;45.952;12.676;2023-05-10T16:33:36;14.30;99.90
37086;DHT22;23001;45.952;12.676;2023-05-10T16:36:02;14.30;99.90
37086;DHT22;23001;45.952;12.676;2023-05-10T16:38:35;14.20;99.90
37086;DHT22;23001;45.952;12.676;2023-05-10T16:41:01;14.30;99.90
37086;DHT22;23001;45.952;12.676;2023-05-10T16:43:28;14.30;99.90
37086;DHT22;23001;45.952;12.676;2023-05-10T16:45:53;14.30;99.90
37086;DHT22;23001;45.952;12.676;2023-05-10T16:48:19;14.30;99.90
37086;DHT22;23001;45.952;12.676;2023-05-10T16:50:45;14.30;99.90
37086;DHT22;23001;45.952;12.676;2023-05-10T16:53:13;14.30;99.90
37086;DHT22;23001;45.952;12.676;2023-05-10T16:55:39;14.30;99.90
37086;DHT22;23001;45.952;12.676;2023-05-10T16:58:04;14.30;99.90
37086;DHT22;23001;45.952;12.676;2023-05-10T17:00:30;14.30;99.90
37086;DHT22;23001;45.952;12.676;2023-05-10T17:02:55;14.30;99.90
37086;DHT22;23001;45.952;12.676;2023-05-10T17:05:21;14.30;99.90
37086;DHT22;23001;45.952;12.676;2023-05-10T17:07:47;14.30;99.90
37086;DHT22;23001;45.952;12.676;2023-05-10T17:10:15;14.20;99.90
37086;DHT22;23001;45.952;12.676;2023-05-10T17:12:41;14.20;99.90
37086;DHT22;23001;45.952;12.676;2023-05-10T17:15:07;14.10;99.90
37086;DHT22;23001;45.952;12.676;2023-05-10T17:20:36;14.10;99.90
37086;DHT22;23001;45.952;12.676;2023-05-10T17:23:02;14.20;99.90
37086;DHT22;23001;45.952;12.676;2023-05-10T17:25:30;14.20;99.90
37086;DHT22;23001;45.952;12.676;2023-05-10T17:46:48;14.30;99.90
37086;DHT22;23001;45.952;12.676;2023-05-10T17:49:14;14.40;99.90
37086;DHT22;23001;45.952;12.676;2023-05-10T17:51:39;14.30;99.90
37086;DHT22;23001;45.952;12.676;2023-05-10T17:54:08;14.30;99.90
37086;DHT22;23001;45.952;12.676;2023-05-10T17:56:50;14.30;99.90
37086;DHT22;23001;45.952;12.676;2023-05-10T17:59:15;14.30;99.90
37086;DHT22;23001;45.952;12.676;2023-05-10T18:01:41;14.30;99.90
37086;DHT22;23001;45.952;12.676;2023-05-10T18:04:07;14.30;99.90
37086;DHT22;23001;45.952;12.676;2023-05-10T18:06:35;14.30;99.90
37086;DHT22;23001;45.952;12.676;2023-05-10T18:09:02;14.30;99.90
37086;DHT22;23001;45.952;12.676;2023-05-10T18:11:28;14.30;99.90
37086;DHT22;23001;45.952;12.676;2023-05-10T18:14:06;14.30;99.90
37086;DHT22;23001;45.952;12.676;2023-05-10T18:16:32;14.30;99.90
37086;DHT22;23001;45.952;12.676;2023-05-10T18:18:57;14.30;99.90
37086;DHT22;23001;45.952;12.676;2023-05-10T18:21:23;14.30;99.90
37086;DHT22;23001;45.952;12.676;2023-05-10T18:23:49;14.30;99.90
37086;DHT22;23001;45.952;12.676;2023-05-10T18:26:14;14.20;99.90
37086;DHT22;23001;45.952;12.676;2023-05-10T18:28:41;14.30;99.90
37086;DHT22;23001;45.952;12.676;2023-05-10T18:31:06;14.30;99.90
37086;DHT22;23001;45.952;12.676;2023-05-10T18:33:35;14.20;99.90
37086;DHT22;23001;45.952;12.676;2023-05-10T18:36:06;14.20;99.90
37086;DHT22;23001;45.952;12.676;2023-05-10T18:38:33;14.10;99.90
37086;DHT22;23001;45.952;12.676;2023-05-10T18:41:01;14.10;99.90
37086;DHT22;23001;45.952;12.676;2023-05-10T18:43:38;14.10;99.90
37086;DHT22;23001;45.952;12.676;2023-05-10T18:51:45;14.10;99.90
37086;DHT22;23001;45.952;12.676;2023-05-10T18:57:17;14.00;99.90
37086;DHT22;23001;45.952;12.676;2023-05-10T18:59:45;14.10;99.90
37086;DHT22;23001;45.952;12.676;2023-05-10T19:14:50;14.00;99.90
37086;DHT22;23001;45.952;12.676;2023-05-10T19:17:27;14.10;99.90
37086;DHT22;23001;45.952;12.676;2023-05-10T19:20:00;14.10;99.90
37086;DHT22;23001;45.952;12.676;2023-05-10T19:27:59;14.10;99.90
37086;DHT22;23001;45.952;12.676;2023-05-10T19:30:43;14.00;99.90
37086;DHT22;23001;45.952;12.676;2023-05-10T19:33:29;14.10;99.90
37086;DHT22;23001;45.952;12.676;2023-05-10T19:36:19;14.10;99.90
37086;DHT22;23001;45.952;12.676;2023-05-10T19:38:47;14.10;99.90
37086;DHT22;23001;45.952;12.676;2023-05-10T19:41:13;14.10;99.90
37086;DHT22;23001;45.952;12.676;2023-05-10T19:43:56;14.00;99.90
37086;DHT22;23001;45.952;12.676;2023-05-10T19:46:37;14.00;99.90
37086;DHT22;23001;45.952;12.676;2023-05-10T19:49:03;14.00;99.90
37086;DHT22;23001;45.952;12.676;2023-05-10T19:51:31;13.90;99.90
37086;DHT22;23001;45.952;12.676;2023-05-10T19:53:57;13.90;99.90
37086;DHT22;23001;45.952;12.676;2023-05-10T19:56:22;13.90;99.90
37086;DHT22;23001;45.952;12.676;2023-05-10T19:58:48;13.90;99.90
37086;DHT22;23001;45.952;12.676;2023-05-10T20:01:14;13.90;99.90
37086;DHT22;23001;45.952;12.676;2023-05-10T20:03:39;13.90;99.90
37086;DHT22;23001;45.952;12.676;2023-05-10T20:25:06;13.80;99.90
37086;DHT22;23001;45.952;12.676;2023-05-10T20:27:32;13.80;99.90
37086;DHT22;23001;45.952;12.676;2023-05-10T20:30:09;13.80;99.90
37086;DHT22;23001;45.952;12.676;2023-05-10T20:32:35;13.80;99.90
37086;DHT22;23001;45.952;12.676;2023-05-10T20:35:04;13.80;99.90
37086;DHT22;23001;45.952;12.676;2023-05-10T20:37:30;13.80;99.90
37086;DHT22;23001;45.952;12.676;2023-05-10T20:43:04;13.70;99.90
37086;DHT22;23001;45.952;12.676;2023-05-10T20:45:36;13.70;99.90
37086;DHT22;23001;45.952;12.676;2023-05-10T20:48:14;13.70;99.90
37086;DHT22;23001;45.952;12.676;2023-05-10T20:53:24;13.70;99.90
37086;DHT22;23001;45.952;12.676;2023-05-10T20:55:53;13.60;99.90
37086;DHT22;23001;45.952;12.676;2023-05-10T20:58:19;13.70;99.90
37086;DHT22;23001;45.952;12.676;2023-05-10T21:00:52;13.70;99.90
37086;DHT22;23001;45.952;12.676;2023-05-10T21:03:18;13.60;99.90
37086;DHT22;23001;45.952;12.676;2023-05-10T21:05:46;13.60;99.90
37086;DHT22;23001;45.952;12.676;2023-05-10T21:08:11;13.60;99.90
37086;DHT22;23001;45.952;12.676;2023-05-10T21:10:40;13.50;99.90
37086;DHT22;23001;45.952;12.676;2023-05-10T21:13:09;13.60;99.90
37086;DHT22;23001;45.952;12.676;2023-05-10T21:15:34;13.60;99.90
37086;DHT22;23001;45.952;12.676;2023-05-10T21:18:00;13.60;99.90
37086;DHT22;23001;45.952;12.676;2023-05-10T21:20:47;13.60;99.90
37086;DHT22;23001;45.952;12.676;2023-05-10T21:23:12;13.60;99.90
37086;DHT22;23001;45.952;12.676;2023-05-10T21:25:38;13.60;99.90
37086;DHT22;23001;45.952;12.676;2023-05-10T21:28:04;13.50;99.90
37086;DHT22;23001;45.952;12.676;2023-05-10T21:30:30;13.60;99.90
37086;DHT22;23001;45.952;12.676;2023-05-10T21:32:56;13.50;99.90
37086;DHT22;23001;45.952;12.676;2023-05-10T21:35:24;13.50;99.90
37086;DHT22;23001;45.952;12.676;2023-05-10T21:37:50;13.50;99.90
37086;DHT22;23001;45.952;12.676;2023-05-10T21:40:18;13.50;99.90
37086;DHT22;23001;45.952;12.676;2023-05-10T21:42:46;13.50;99.90
37086;DHT22;23001;45.952;12.676;2023-05-10T21:45:14;13.50;99.90
37086;DHT22;23001;45.952;12.676;2023-05-10T21:47:40;13.50;99.90
37086;DHT22;23001;45.952;12.676;2023-05-10T21:50:06;13.40;99.90
37086;DHT22;23001;45.952;12.676;2023-05-10T21:52:34;13.40;99.90
37086;DHT22;23001;45.952;12.676;2023-05-10T21:55:09;13.40;99.90
37086;DHT22;23001;45.952;12.676;2023-05-10T21:57:35;13.40;99.90
37086;DHT22;23001;45.952;12.676;2023-05-10T22:00:03;13.40;99.90
37086;DHT22;23001;45.952;12.676;2023-05-10T22:02:29;13.50;99.90
37086;DHT22;23001;45.952;12.676;2023-05-10T22:04:55;13.50;99.90
37086;DHT22;23001;45.952;12.676;2023-05-10T22:07:23;13.40;99.90
37086;DHT22;23001;45.952;12.676;2023-05-10T22:09:52;13.40;99.90
37086;DHT22;23001;45.952;12.676;2023-05-10T22:12:18;13.40;99.90
37086;DHT22;23001;45.952;12.676;2023-05-10T22:14:44;13.40;99.90
37086;DHT22;23001;45.952;12.676;2023-05-10T22:17:09;13.30;99.90
37086;DHT22;23001;45.952;12.676;2023-05-10T22:19:35;13.30;99.90
37086;DHT22;23001;45.952;12.676;2023-05-10T22:22:01;13.30;99.90
37086;DHT22;23001;45.952;12.676;2023-05-10T22:24:29;13.30;99.90
37086;DHT22;23001;45.952;12.676;2023-05-10T22:26:55;13.30;99.90
37086;DHT22;23001;45.952;12.676;2023-05-10T22:29:21;13.20;99.90
37086;DHT22;23001;45.952;12.676;2023-05-10T22:31:47;13.20;99.90
37086;DHT22;23001;45.952;12.676;2023-05-10T22:34:13;13.30;99.90
37086;DHT22;23001;45.952;12.676;2023-05-10T22:36:39;13.20;99.90
37086;DHT22;23001;45.952;12.676;2023-05-10T22:39:04;13.20;99.90
37086;DHT22;23001;45.952;12.676;2023-05-10T22:41:31;13.20;99.90
37086;DHT22;23001;45.952;12.676;2023-05-10T22:44:00;13.30;99.90
37086;DHT22;23001;45.952;12.676;2023-05-10T22:46:25;13.20;99.90
37086;DHT22;23001;45.952;12.676;2023-05-10T22:48:51;13.20;99.90
37086;DHT22;23001;45.952;12.676;2023-05-10T22:51:17;13.20;99.90
37086;DHT22;23001;45.952;12.676;2023-05-10T22:53:43;13.20;99.90
37086;DHT22;23001;45.952;12.676;2023-05-10T22:56:08;13.20;99.90
37086;DHT22;23001;45.952;12.676;2023-05-10T22:58:34;13.20;99.90
37086;DHT22;23001;45.952;12.676;2023-05-10T23:01:00;13.20;99.90
37086;DHT22;23001;45.952;12.676;2023-05-10T23:03:28;13.20;99.90
37086;DHT22;23001;45.952;12.676;2023-05-10T23:05:54;13.20;99.90
37086;DHT22;23001;45.952;12.676;2023-05-10T23:08:25;13.20;99.90
37086;DHT22;23001;45.952;12.676;2023-05-10T23:10:50;13.20;99.90
37086;DHT22;23001;45.952;12.676;2023-05-10T23:13:16;13.20;99.90
37086;DHT22;23001;45.952;12.676;2023-05-10T23:15:43;13.20;99.90
37086;DHT22;23001;45.952;12.676;2023-05-10T23:18:08;13.20;99.90
37086;DHT22;23001;45.952;12.676;2023-05-10T23:20:34;13.30;99.90
37086;DHT22;23001;45.952;12.676;2023-05-10T23:23:00;13.20;99.90
37086;DHT22;23001;45.952;12.676;2023-05-10T23:25:26;13.20;99.90
37086;DHT22;23001;45.952;12.676;2023-05-10T23:27:51;13.20;99.90
37086;DHT22;23001;45.952;12.676;2023-05-10T23:30:26;13.20;99.90
37086;DHT22;23001;45.952;12.676;2023-05-10T23:33:01;13.20;99.90
37086;DHT22;23001;45.952;12.676;2023-05-10T23:35:27;13.20;99.90
37086;DHT22;23001;45.952;12.676;2023-05-10T23:37:53;13.20;99.90
37086;DHT22;23001;45.952;12.676;2023-05-10T23:40:19;13.20;99.90
37086;DHT22;23001;45.952;12.676;2023-05-10T23:43:27;13.20;99.90
37086;DHT22;23001;45.952;12.676;2023-05-10T23:45:58;13.20;99.90
37086;DHT22;23001;45.952;12.676;2023-05-10T23:48:29;13.10;99.90
37086;DHT22;23001;45.952;12.676;2023-05-10T23:50:55;13.20;99.90
37086;DHT22;23001;45.952;12.676;2023-05-10T23:53:20;13.20;99.90
37086;DHT22;23001;45.952;12.676;2023-05-10T23:55:46;13.20;99.90
37086;DHT22;23001;45.952;12.676;2023-05-10T23:58:12;13.10;99.90
